createdAt,value
2022-12-18T00:02:26.824Z,57.77
2022-12-18T00:05:14.858Z,59.58
2022-12-18T00:08:02.977Z,60.71
2022-12-18T00:11:07.031Z,61.14
2022-12-18T00:13:58.390Z,69.74
2022-12-18T00:16:47.411Z,71.82
2022-12-18T00:19:35.223Z,62.91
2022-12-18T00:22:23.222Z,53.09
2022-12-18T00:25:10.899Z,52.25
2022-12-18T00:27:58.524Z,55.43
2022-12-18T00:30:47.106Z,56.39
2022-12-18T00:33:36.966Z,59.11
2022-12-18T00:36:28.752Z,60.15
2022-12-18T00:39:16.431Z,65.75
2022-12-18T00:42:24.159Z,69.60
2022-12-18T00:45:13.187Z,60.65
2022-12-18T00:48:01.330Z,54.40
2022-12-18T00:50:52.261Z,52.81
2022-12-18T00:53:40.411Z,54.54
2022-12-18T00:56:28.332Z,55.28
2022-12-18T00:59:20.544Z,57.95
2022-12-18T01:02:08.137Z,59.61
2022-12-18T01:04:55.924Z,61.03
2022-12-18T01:07:43.915Z,68.67
2022-12-18T01:10:31.546Z,70.56
2022-12-18T01:13:19.653Z,62.49
2022-12-18T01:16:14.084Z,54.44
2022-12-18T01:19:02.405Z,52.05
2022-12-18T01:21:50.995Z,53.07
2022-12-18T01:24:38.701Z,55.66
2022-12-18T01:27:27.981Z,59.25
2022-12-18T01:30:16.107Z,65.20
2022-12-18T01:33:06.534Z,68.20
2022-12-18T01:35:54.614Z,60.11
2022-12-18T01:38:42.648Z,52.15
2022-12-18T01:41:52.977Z,53.72
2022-12-18T01:45:04.524Z,56.06
2022-12-18T01:48:07.762Z,57.87
2022-12-18T01:50:57.124Z,58.59
2022-12-18T01:53:46.206Z,61.23
2022-12-18T01:56:33.681Z,65.87
2022-12-18T01:59:21.765Z,71.12
2022-12-18T02:02:10.247Z,63.14
2022-12-18T02:04:58.063Z,55.89
2022-12-18T02:08:29.430Z,53.13
2022-12-18T02:11:35.559Z,55.93
2022-12-18T02:15:00.033Z,57.94
2022-12-18T02:18:03.050Z,58.28
2022-12-18T02:21:26.962Z,62.86
2022-12-18T02:24:47.830Z,70.65
2022-12-18T02:27:40.369Z,62.96
2022-12-18T02:30:32.890Z,56.76
2022-12-18T02:33:26.074Z,54.57
2022-12-18T02:36:17.463Z,56.71
2022-12-18T02:39:09.093Z,57.89
2022-12-18T02:41:59.089Z,59.47
2022-12-18T02:44:50.981Z,63.51
2022-12-18T02:47:49.099Z,69.80
2022-12-18T02:50:46.406Z,62.39
2022-12-18T02:53:46.751Z,53.65
2022-12-18T02:57:04.599Z,53.02
2022-12-18T03:00:05.098Z,54.51
2022-12-18T03:03:06.199Z,59.61
2022-12-18T03:06:02.835Z,60.44
2022-12-18T03:09:00.385Z,66.82
2022-12-18T03:12:16.747Z,67.27
2022-12-18T03:15:24.489Z,58.44
2022-12-18T03:18:30.665Z,54.52
2022-12-18T03:21:28.471Z,55.17
2022-12-18T03:24:18.318Z,57.10
2022-12-18T03:27:13.602Z,59.97
2022-12-18T03:30:13.811Z,65.29
2022-12-18T03:33:13.190Z,68.41
2022-12-18T03:36:04.290Z,61.77
2022-12-18T03:38:52.731Z,56.07
2022-12-18T03:42:13.547Z,52.67
2022-12-18T03:45:19.819Z,57.24
2022-12-18T03:48:23.874Z,57.86
2022-12-18T03:51:53.911Z,59.01
2022-12-18T03:54:44.098Z,65.10
2022-12-18T03:57:35.460Z,69.97
2022-12-18T04:00:24.601Z,64.54
2022-12-18T04:03:25.450Z,60.04
2022-12-18T04:06:16.482Z,52.74
2022-12-18T04:09:05.819Z,51.48
2022-12-18T04:11:56.140Z,53.43
2022-12-18T04:14:44.899Z,54.29
2022-12-18T04:17:34.945Z,56.90
2022-12-18T04:20:24.414Z,60.39
2022-12-18T04:23:12.338Z,64.96
2022-12-18T04:26:00.476Z,69.16
2022-12-18T04:28:59.606Z,62.71
2022-12-18T04:31:47.287Z,53.36
2022-12-18T04:34:34.751Z,51.21
2022-12-18T04:37:22.550Z,52.57
2022-12-18T04:40:11.833Z,55.40
2022-12-18T04:43:03.358Z,58.22
2022-12-18T04:45:50.969Z,60.86
2022-12-18T04:48:39.188Z,65.60
2022-12-18T04:51:27.029Z,69.41
2022-12-18T04:54:15.110Z,60.98
2022-12-18T04:57:02.527Z,51.75
2022-12-18T04:59:50.140Z,52.13
2022-12-18T05:02:38.139Z,55.73
2022-12-18T05:05:25.921Z,57.80
2022-12-18T05:08:13.534Z,60.09
2022-12-18T05:11:10.036Z,60.47
2022-12-18T05:13:58.332Z,62.60
2022-12-18T05:16:46.366Z,70.42
2022-12-18T05:19:34.192Z,64.59
2022-12-18T05:22:21.521Z,58.64
2022-12-18T05:25:09.756Z,51.50
2022-12-18T05:27:57.319Z,52.98
2022-12-18T05:30:54.867Z,53.94
2022-12-18T05:33:43.002Z,58.63
2022-12-18T05:36:31.051Z,59.12
2022-12-18T05:39:18.549Z,61.53
2022-12-18T05:42:06.072Z,67.57
2022-12-18T05:44:53.658Z,67.76
2022-12-18T05:47:41.258Z,61.18
2022-12-18T05:50:28.972Z,53.74
2022-12-18T05:53:22.274Z,52.13
2022-12-18T05:56:17.121Z,54.98
2022-12-18T05:59:04.790Z,57.40
2022-12-18T06:01:52.726Z,60.43
2022-12-18T06:04:40.515Z,60.45
2022-12-18T06:07:27.975Z,65.33
2022-12-18T06:10:15.566Z,69.28
2022-12-18T06:13:04.867Z,64.14
2022-12-18T06:15:52.722Z,55.08
2022-12-18T06:18:40.219Z,51.46
2022-12-18T06:21:29.975Z,52.93
2022-12-18T06:24:18.003Z,54.20
2022-12-18T06:27:06.709Z,56.92
2022-12-18T06:29:54.276Z,58.50
2022-12-18T06:32:42.064Z,60.45
2022-12-18T06:35:29.802Z,68.02
2022-12-18T06:38:17.372Z,68.63
2022-12-18T06:41:14.391Z,62.58
2022-12-18T06:44:02.055Z,55.80
2022-12-18T06:46:50.047Z,52.40
2022-12-18T06:49:37.980Z,56.24
2022-12-18T06:52:26.012Z,56.77
2022-12-18T06:55:13.642Z,59.72
2022-12-18T06:58:01.931Z,65.08
2022-12-18T07:00:50.759Z,66.91
2022-12-18T07:03:41.107Z,59.14
2022-12-18T07:06:29.353Z,53.02
2022-12-18T07:09:16.895Z,53.11
2022-12-18T07:12:06.049Z,54.94
2022-12-18T07:14:53.988Z,56.08
2022-12-18T07:17:41.476Z,58.63
2022-12-18T07:20:29.208Z,61.45
2022-12-18T07:23:16.601Z,68.02
2022-12-18T07:26:11.375Z,65.78
2022-12-18T07:28:59.542Z,56.32
2022-12-18T07:31:47.405Z,53.14
2022-12-18T07:34:36.532Z,54.25
2022-12-18T07:37:24.501Z,56.17
2022-12-18T07:40:13.114Z,58.05
2022-12-18T07:43:01.884Z,58.61
2022-12-18T07:45:51.737Z,59.11
2022-12-18T07:48:39.567Z,60.00
2022-12-18T07:51:27.301Z,61.67
2022-12-18T07:54:15.271Z,65.35
2022-12-18T07:57:02.800Z,69.97
2022-12-18T07:59:50.298Z,63.77
2022-12-18T08:02:38.384Z,60.77
2022-12-18T08:05:27.359Z,52.53
2022-12-18T08:08:15.369Z,53.25
2022-12-18T08:11:03.678Z,57.35
2022-12-18T08:13:52.027Z,61.11
2022-12-18T08:16:39.625Z,64.28
2022-12-18T08:19:27.546Z,64.83
2022-12-18T08:22:14.993Z,60.23
2022-12-18T08:25:05.671Z,57.49
2022-12-18T08:27:53.622Z,58.84
2022-12-18T08:30:41.814Z,64.85
2022-12-18T08:33:29.828Z,61.70
2022-12-18T08:36:18.395Z,52.86
2022-12-18T08:39:06.093Z,56.54
2022-12-18T08:42:12.448Z,57.72
2022-12-18T08:45:00.685Z,60.56
2022-12-18T08:47:48.579Z,60.90
2022-12-18T08:50:36.328Z,61.07
2022-12-18T08:53:25.185Z,60.05
2022-12-18T08:56:15.243Z,59.64
2022-12-18T08:59:03.517Z,57.85
2022-12-18T09:01:51.378Z,55.57
2022-12-18T09:04:41.074Z,56.03
2022-12-18T09:07:28.890Z,54.42
2022-12-18T09:10:16.590Z,53.57
2022-12-18T09:13:05.799Z,52.50
2022-12-18T09:15:55.587Z,50.42
2022-12-18T09:18:44.009Z,49.44
2022-12-18T09:21:36.976Z,47.51
2022-12-18T09:24:25.508Z,46.45
2022-12-18T09:27:13.499Z,45.05
2022-12-18T09:30:01.879Z,45.55
2022-12-18T09:32:49.890Z,44.24
2022-12-18T09:35:39.390Z,42.69
2022-12-18T09:38:27.001Z,42.10
2022-12-18T09:41:45.928Z,41.99
2022-12-18T09:44:47.171Z,40.79
2022-12-18T09:47:40.405Z,39.52
2022-12-18T09:50:36.402Z,39.06
2022-12-18T09:53:32.607Z,37.51
2022-12-18T09:56:25.959Z,36.20
2022-12-18T09:59:41.143Z,35.64
2022-12-18T10:02:33.695Z,33.80
2022-12-18T10:05:42.469Z,33.27
2022-12-18T10:08:54.820Z,33.34
2022-12-18T10:12:10.189Z,31.78
2022-12-18T10:15:16.154Z,29.73
2022-12-18T10:18:09.521Z,31.07
2022-12-18T10:21:11.235Z,30.86
2022-12-18T10:24:30.402Z,29.75
2022-12-18T10:27:26.894Z,29.90
2022-12-18T10:30:22.816Z,29.53
2022-12-18T10:33:24.625Z,30.19
2022-12-18T10:36:12.710Z,29.78
2022-12-18T10:39:19.432Z,29.62
2022-12-18T10:42:20.904Z,29.33
2022-12-18T10:45:17.354Z,29.38
2022-12-18T10:48:05.574Z,29.24
2022-12-18T10:51:12.294Z,28.88
2022-12-18T10:54:07.731Z,28.11
2022-12-18T10:57:15.502Z,27.52
2022-12-18T11:00:28.711Z,27.49
2022-12-18T11:03:40.823Z,27.55
2022-12-18T11:06:29.702Z,27.57
2022-12-18T11:09:27.255Z,26.06
2022-12-18T11:12:22.430Z,26.76
2022-12-18T11:15:30.994Z,26.79
2022-12-18T11:18:40.098Z,26.92
2022-12-18T11:21:27.862Z,26.96
2022-12-18T11:24:35.025Z,26.30
2022-12-18T11:27:22.849Z,26.50
2022-12-18T11:30:32.998Z,26.28
2022-12-18T11:33:22.891Z,26.48
2022-12-18T11:36:11.444Z,26.11
2022-12-18T11:39:03.113Z,26.64
2022-12-18T11:42:12.970Z,27.11
2022-12-18T11:45:13.919Z,27.88
2022-12-18T11:48:18.510Z,28.83
2022-12-18T11:51:15.366Z,30.11
2022-12-18T11:54:14.611Z,30.90
2022-12-18T11:57:31.762Z,31.90
2022-12-18T12:00:21.455Z,32.74
2022-12-18T12:03:12.332Z,33.40
2022-12-18T12:06:17.185Z,33.91
2022-12-18T12:10:10.035Z,34.56
2022-12-18T12:13:30.477Z,35.28
2022-12-18T12:16:52.800Z,36.62
2022-12-18T12:20:08.265Z,37.98
2022-12-18T12:23:31.251Z,38.21
2022-12-18T12:26:28.547Z,38.33
2022-12-18T12:29:44.148Z,38.47
2022-12-18T12:32:49.671Z,39.69
2022-12-18T12:36:06.510Z,41.26
2022-12-18T12:39:00.962Z,42.30
2022-12-18T12:42:07.691Z,43.90
2022-12-18T12:44:59.744Z,44.99
2022-12-18T12:47:51.127Z,45.88
2022-12-18T12:50:41.185Z,47.62
2022-12-18T12:53:37.248Z,47.86
2022-12-18T12:56:37.492Z,48.74
2022-12-18T13:00:18.163Z,48.46
2022-12-18T13:03:29.226Z,50.24
2022-12-18T13:06:39.271Z,51.13
2022-12-18T13:09:36.703Z,51.77
2022-12-18T13:12:42.886Z,51.86
2022-12-18T13:15:46.217Z,52.71
2022-12-18T13:18:35.083Z,53.08
2022-12-18T13:21:30.700Z,54.03
2022-12-18T13:24:32.315Z,54.45
2022-12-18T13:27:54.540Z,55.43
2022-12-18T13:31:01.387Z,54.91
2022-12-18T13:37:33.051Z,55.57
2022-12-18T13:40:49.136Z,55.43
2022-12-18T13:43:59.277Z,55.47
2022-12-18T13:46:49.843Z,56.46
2022-12-18T13:49:42.867Z,56.78
2022-12-18T13:52:38.604Z,57.18
2022-12-18T13:55:26.848Z,57.67
2022-12-18T13:58:14.651Z,57.73
2022-12-18T14:01:05.706Z,58.16
2022-12-18T14:04:26.479Z,58.88
2022-12-18T14:07:26.571Z,58.79
2022-12-18T14:13:38.431Z,60.33
2022-12-18T14:16:26.375Z,60.33
2022-12-18T14:19:18.775Z,61.36
2022-12-18T14:22:12.404Z,62.08
2022-12-18T14:25:24.796Z,61.87
2022-12-18T14:28:16.412Z,61.99
2022-12-18T14:31:04.293Z,63.33
2022-12-18T14:33:53.422Z,55.16
2022-12-18T14:36:41.415Z,53.62
2022-12-18T14:39:29.675Z,54.94
2022-12-18T14:42:17.475Z,57.16
2022-12-18T14:45:41.651Z,59.69
2022-12-18T14:48:43.144Z,61.72
2022-12-18T14:51:34.445Z,62.29
2022-12-18T14:54:24.396Z,60.09
2022-12-18T14:57:36.259Z,55.36
2022-12-18T15:00:26.906Z,57.59
2022-12-18T15:03:21.411Z,59.63
2022-12-18T15:06:38.578Z,61.25
2022-12-18T15:09:27.443Z,62.43
2022-12-18T15:12:34.267Z,61.84
2022-12-18T15:15:45.910Z,55.14
2022-12-18T15:18:41.986Z,56.66
2022-12-18T15:21:32.545Z,59.25
2022-12-18T15:24:27.978Z,61.23
2022-12-18T15:27:32.681Z,62.63
2022-12-18T15:30:25.818Z,64.05
2022-12-18T15:33:33.041Z,54.51
2022-12-18T15:36:26.261Z,51.79
2022-12-18T15:39:14.542Z,54.94
2022-12-18T15:42:21.628Z,57.30
2022-12-18T15:45:13.858Z,60.15
2022-12-18T15:48:24.808Z,61.68
2022-12-18T15:51:21.408Z,62.52
2022-12-18T15:54:16.674Z,56.88
2022-12-18T15:57:23.326Z,55.84
2022-12-18T16:00:13.761Z,58.47
2022-12-18T16:03:02.297Z,61.00
2022-12-18T16:05:50.570Z,62.77
2022-12-18T16:08:38.144Z,61.33
2022-12-18T16:11:39.215Z,54.55
2022-12-18T16:14:30.187Z,55.48
2022-12-18T16:17:18.709Z,58.87
2022-12-18T16:20:18.589Z,61.96
2022-12-18T16:23:06.417Z,61.74
2022-12-18T16:25:54.356Z,55.82
2022-12-18T16:28:46.801Z,54.59
2022-12-18T16:31:36.519Z,57.51
2022-12-18T16:34:29.473Z,59.81
2022-12-18T16:37:17.883Z,61.98
2022-12-18T16:40:09.939Z,62.23
2022-12-18T16:42:57.853Z,56.00
2022-12-18T16:45:45.445Z,56.23
2022-12-18T16:48:36.415Z,59.19
2022-12-18T16:51:24.209Z,61.61
2022-12-18T16:54:17.385Z,61.90
2022-12-18T16:57:07.265Z,56.14
2022-12-18T16:59:57.623Z,55.86
2022-12-18T17:02:48.463Z,59.26
2022-12-18T17:05:37.772Z,61.62
2022-12-18T17:08:25.763Z,63.43
2022-12-18T17:11:15.523Z,58.05
2022-12-18T17:14:19.201Z,56.26
2022-12-18T17:17:20.332Z,59.22
2022-12-18T17:20:09.775Z,62.61
2022-12-18T17:22:58.919Z,62.46
2022-12-18T17:25:47.917Z,55.28
2022-12-18T17:28:35.603Z,55.89
2022-12-18T17:31:26.154Z,58.77
2022-12-18T17:34:15.167Z,61.79
2022-12-18T17:37:02.753Z,64.05
2022-12-18T17:39:50.660Z,58.79
2022-12-18T17:42:38.360Z,56.02
2022-12-18T17:45:26.214Z,58.95
2022-12-18T17:48:14.191Z,61.95
2022-12-18T17:51:04.322Z,62.92
2022-12-18T17:53:52.359Z,56.97
2022-12-18T17:56:40.209Z,56.56
2022-12-18T17:59:27.986Z,60.72
2022-12-18T18:02:16.387Z,62.81
2022-12-18T18:05:04.906Z,58.17
2022-12-18T18:07:52.625Z,57.13
2022-12-18T18:10:42.086Z,60.40
2022-12-18T18:13:48.710Z,63.12
2022-12-18T18:16:41.544Z,58.02
2022-12-18T18:19:29.560Z,56.88
2022-12-18T18:22:17.458Z,60.33
2022-12-18T18:25:09.696Z,63.28
2022-12-18T18:27:57.900Z,60.74
2022-12-18T18:30:45.873Z,54.83
2022-12-18T18:33:34.135Z,58.25
2022-12-18T18:36:24.405Z,61.20
2022-12-18T18:39:13.755Z,63.13
2022-12-18T18:42:02.565Z,58.26
2022-12-18T18:44:50.239Z,56.25
2022-12-18T18:47:37.798Z,51.65
2022-12-18T18:50:26.683Z,47.76
2022-12-18T18:53:14.347Z,48.59
2022-12-18T18:56:34.815Z,46.78
2022-12-18T18:59:09.724Z,45.88
2022-12-18T19:01:57.516Z,45.24
2022-12-18T19:04:45.979Z,44.61
2022-12-18T19:07:34.164Z,44.69
2022-12-18T19:10:21.587Z,45.29
2022-12-18T19:13:22.792Z,43.25
2022-12-18T19:16:10.454Z,45.02
2022-12-18T19:19:01.828Z,42.72
2022-12-18T19:21:50.819Z,43.24
2022-12-18T19:24:39.104Z,43.48
2022-12-18T19:27:26.724Z,42.33
2022-12-18T19:30:14.792Z,42.29
2022-12-18T19:33:14.862Z,43.06
2022-12-18T19:36:21.348Z,43.25
2022-12-18T19:39:16.151Z,43.64
2022-12-18T19:42:03.888Z,43.79
2022-12-18T19:44:51.842Z,43.95
2022-12-18T19:47:39.558Z,43.33
2022-12-18T19:50:27.192Z,43.54
2022-12-18T19:53:15.021Z,43.29
2022-12-18T19:56:16.196Z,43.54
2022-12-18T19:59:05.264Z,43.57
2022-12-18T20:01:54.371Z,43.55
2022-12-18T20:04:42.667Z,43.54
2022-12-18T20:07:30.572Z,43.67
2022-12-18T20:10:19.120Z,44.01
2022-12-18T20:13:09.004Z,43.61
2022-12-18T20:15:56.715Z,44.00
2022-12-18T20:18:44.972Z,43.07
2022-12-18T20:21:34.261Z,43.23
2022-12-18T20:24:23.503Z,42.78
2022-12-18T20:27:16.112Z,43.45
2022-12-18T20:30:06.676Z,42.80
2022-12-18T20:32:54.222Z,42.27
2022-12-18T20:35:42.137Z,42.86
2022-12-18T20:38:30.765Z,42.36
2022-12-18T20:41:22.544Z,42.76
2022-12-18T20:44:22.548Z,43.28
2022-12-18T20:47:12.030Z,43.55
2022-12-18T20:50:00.915Z,44.59
2022-12-18T20:52:48.818Z,44.12
2022-12-18T20:55:43.149Z,43.80
2022-12-18T20:58:30.938Z,43.13
2022-12-18T21:01:21.184Z,42.91
2022-12-18T21:04:08.753Z,43.32
2022-12-18T21:07:02.386Z,43.64
2022-12-18T21:09:50.412Z,44.42
2022-12-18T21:12:49.644Z,44.10
2022-12-18T21:15:49.553Z,44.64
2022-12-18T21:18:37.593Z,44.25
2022-12-18T21:21:26.846Z,43.74
2022-12-18T21:24:15.718Z,43.74
2022-12-18T21:27:03.813Z,43.83
2022-12-18T21:29:52.653Z,43.79
2022-12-18T21:32:41.167Z,43.59
2022-12-18T21:35:28.632Z,43.14
2022-12-18T21:38:19.940Z,43.93
2022-12-18T21:41:30.699Z,43.93
2022-12-18T21:44:19.393Z,44.76
2022-12-18T21:47:21.277Z,45.44
2022-12-18T21:50:11.131Z,44.03
2022-12-18T21:52:58.812Z,43.95
2022-12-18T21:55:47.120Z,44.28
2022-12-18T21:58:34.862Z,43.56
2022-12-18T22:01:22.985Z,43.91
2022-12-18T22:04:11.346Z,43.08
2022-12-18T22:07:03.053Z,42.76
2022-12-18T22:09:50.742Z,42.44
2022-12-18T22:12:44.219Z,42.92
2022-12-18T22:15:33.859Z,43.12
2022-12-18T22:18:21.621Z,42.32
2022-12-18T22:21:29.731Z,43.22
2022-12-18T22:24:25.042Z,42.79
2022-12-18T22:27:12.894Z,42.44
2022-12-18T22:30:06.182Z,43.32
2022-12-18T22:32:54.065Z,43.32
2022-12-18T22:35:41.866Z,43.02
2022-12-18T22:38:29.757Z,42.59
2022-12-18T22:41:17.974Z,42.81
2022-12-18T22:44:06.084Z,43.21
2022-12-18T22:47:06.227Z,43.65
2022-12-18T22:49:55.123Z,43.15
2022-12-18T22:52:43.038Z,42.93
2022-12-18T22:55:31.340Z,44.06
2022-12-18T22:58:19.005Z,44.08
2022-12-18T23:01:07.397Z,44.60
2022-12-18T23:03:55.903Z,44.15
2022-12-18T23:06:44.962Z,44.88
2022-12-18T23:09:33.332Z,45.19
2022-12-18T23:12:20.715Z,45.12
2022-12-18T23:15:09.119Z,45.24
2022-12-18T23:17:58.896Z,45.14
2022-12-18T23:20:46.922Z,46.25
2022-12-18T23:23:36.803Z,45.63
2022-12-18T23:26:26.415Z,45.00
2022-12-18T23:29:14.253Z,44.37
2022-12-18T23:32:01.898Z,44.35
2022-12-18T23:34:49.846Z,44.26
2022-12-18T23:37:58.378Z,44.86
2022-12-18T23:40:45.236Z,43.93
2022-12-18T23:43:35.214Z,43.45
2022-12-18T23:46:27.361Z,43.34
2022-12-18T23:49:18.043Z,43.28
2022-12-18T23:52:05.802Z,43.13
2022-12-18T23:54:53.491Z,43.64
2022-12-18T23:57:41.188Z,43.40
